sensor_id;sensor_type;location;lat;lon;timestamp;P1;durP1;ratioP1;P2;durP2;ratioP2
46288;SDS011;63105;46.158;14.604;2023-07-13T00:00:46;5.97;;;2.73;;
46288;SDS011;63105;46.158;14.604;2023-07-13T00:03:12;5.35;;;2.88;;
46288;SDS011;63105;46.158;14.604;2023-07-13T00:05:38;4.03;;;2.42;;
46288;SDS011;63105;46.158;14.604;2023-07-13T00:08:03;5.45;;;2.80;;
46288;SDS011;63105;46.158;14.604;2023-07-13T00:10:29;6.32;;;2.58;;
46288;SDS011;63105;46.158;14.604;2023-07-13T00:12:54;5.43;;;2.80;;
46288;SDS011;63105;46.158;14.604;2023-07-13T00:15:23;5.60;;;2.72;;
46288;SDS011;63105;46.158;14.604;2023-07-13T00:17:52;5.53;;;2.67;;
46288;SDS011;63105;46.158;14.604;2023-07-13T00:20:18;4.45;;;2.75;;
46288;SDS011;63105;46.158;14.604;2023-07-13T00:22:46;4.72;;;3.08;;
46288;SDS011;63105;46.158;14.604;2023-07-13T00:25:12;4.22;;;2.42;;
46288;SDS011;63105;46.158;14.604;2023-07-13T00:27:37;5.50;;;3.15;;
46288;SDS011;63105;46.158;14.604;2023-07-13T00:30:03;5.07;;;2.75;;
46288;SDS011;63105;46.158;14.604;2023-07-13T00:32:28;4.65;;;2.60;;
46288;SDS011;63105;46.158;14.604;2023-07-13T00:34:54;5.63;;;2.75;;
46288;SDS011;63105;46.158;14.604;2023-07-13T00:37:20;4.40;;;2.70;;
46288;SDS011;63105;46.158;14.604;2023-07-13T00:39:45;4.78;;;3.03;;
46288;SDS011;63105;46.158;14.604;2023-07-13T00:42:10;5.20;;;2.80;;
46288;SDS011;63105;46.158;14.604;2023-07-13T00:44:36;6.03;;;2.72;;
46288;SDS011;63105;46.158;14.604;2023-07-13T00:47:01;5.35;;;3.00;;
46288;SDS011;63105;46.158;14.604;2023-07-13T00:49:27;5.33;;;3.00;;
46288;SDS011;63105;46.158;14.604;2023-07-13T00:54:21;5.13;;;3.00;;
46288;SDS011;63105;46.158;14.604;2023-07-13T00:56:48;4.40;;;2.47;;
46288;SDS011;63105;46.158;14.604;2023-07-13T00:59:15;4.45;;;3.00;;
46288;SDS011;63105;46.158;14.604;2023-07-13T01:01:41;5.38;;;3.10;;
46288;SDS011;63105;46.158;14.604;2023-07-13T01:04:06;6.50;;;3.38;;
46288;SDS011;63105;46.158;14.604;2023-07-13T01:06:33;9.35;;;4.72;;
46288;SDS011;63105;46.158;14.604;2023-07-13T01:08:59;13.88;;;6.05;;
46288;SDS011;63105;46.158;14.604;2023-07-13T01:11:25;12.98;;;4.45;;
46288;SDS011;63105;46.158;14.604;2023-07-13T01:13:51;24.10;;;3.40;;
46288;SDS011;63105;46.158;14.604;2023-07-13T01:16:22;11.30;;;2.60;;
46288;SDS011;63105;46.158;14.604;2023-07-13T01:18:49;6.82;;;1.98;;
46288;SDS011;63105;46.158;14.604;2023-07-13T01:21:14;14.93;;;3.10;;
46288;SDS011;63105;46.158;14.604;2023-07-13T01:23:39;10.23;;;2.75;;
46288;SDS011;63105;46.158;14.604;2023-07-13T01:26:04;7.40;;;2.30;;
46288;SDS011;63105;46.158;14.604;2023-07-13T01:28:30;5.57;;;1.90;;
46288;SDS011;63105;46.158;14.604;2023-07-13T01:30:56;8.32;;;2.10;;
46288;SDS011;63105;46.158;14.604;2023-07-13T01:33:22;7.60;;;1.70;;
46288;SDS011;63105;46.158;14.604;2023-07-13T01:35:47;4.93;;;1.70;;
46288;SDS011;63105;46.158;14.604;2023-07-13T01:38:19;6.20;;;1.83;;
46288;SDS011;63105;46.158;14.604;2023-07-13T01:40:45;6.80;;;1.80;;
46288;SDS011;63105;46.158;14.604;2023-07-13T01:43:10;6.17;;;1.43;;
46288;SDS011;63105;46.158;14.604;2023-07-13T01:45:35;5.05;;;1.30;;
46288;SDS011;63105;46.158;14.604;2023-07-13T01:48:01;3.70;;;1.20;;
46288;SDS011;63105;46.158;14.604;2023-07-13T01:50:26;3.60;;;1.30;;
46288;SDS011;63105;46.158;14.604;2023-07-13T01:52:52;4.82;;;1.20;;
46288;SDS011;63105;46.158;14.604;2023-07-13T01:55:17;5.03;;;1.40;;
46288;SDS011;63105;46.158;14.604;2023-07-13T01:57:42;3.33;;;1.30;;
46288;SDS011;63105;46.158;14.604;2023-07-13T02:00:09;5.53;;;1.50;;
46288;SDS011;63105;46.158;14.604;2023-07-13T02:02:34;4.90;;;1.40;;
46288;SDS011;63105;46.158;14.604;2023-07-13T02:05:00;4.07;;;1.30;;
46288;SDS011;63105;46.158;14.604;2023-07-13T02:07:25;5.53;;;1.40;;
46288;SDS011;63105;46.158;14.604;2023-07-13T02:09:50;4.33;;;1.33;;
46288;SDS011;63105;46.158;14.604;2023-07-13T02:12:15;4.63;;;1.30;;
46288;SDS011;63105;46.158;14.604;2023-07-13T02:14:40;5.50;;;1.50;;
46288;SDS011;63105;46.158;14.604;2023-07-13T02:17:06;3.33;;;1.10;;
46288;SDS011;63105;46.158;14.604;2023-07-13T02:19:31;4.03;;;1.40;;
46288;SDS011;63105;46.158;14.604;2023-07-13T02:21:56;4.65;;;1.40;;
46288;SDS011;63105;46.158;14.604;2023-07-13T02:24:22;4.00;;;1.13;;
46288;SDS011;63105;46.158;14.604;2023-07-13T02:26:47;4.25;;;1.40;;
46288;SDS011;63105;46.158;14.604;2023-07-13T02:29:13;3.53;;;1.20;;
46288;SDS011;63105;46.158;14.604;2023-07-13T02:31:38;3.75;;;1.30;;
46288;SDS011;63105;46.158;14.604;2023-07-13T02:34:03;5.05;;;1.35;;
46288;SDS011;63105;46.158;14.604;2023-07-13T02:36:29;3.90;;;1.52;;
46288;SDS011;63105;46.158;14.604;2023-07-13T02:38:54;5.50;;;1.40;;
46288;SDS011;63105;46.158;14.604;2023-07-13T02:41:19;5.53;;;1.45;;
46288;SDS011;63105;46.158;14.604;2023-07-13T02:43:44;3.83;;;1.33;;
46288;SDS011;63105;46.158;14.604;2023-07-13T02:46:10;5.13;;;1.47;;
46288;SDS011;63105;46.158;14.604;2023-07-13T02:48:35;6.60;;;1.60;;
46288;SDS011;63105;46.158;14.604;2023-07-13T02:51:01;5.15;;;1.63;;
46288;SDS011;63105;46.158;14.604;2023-07-13T02:53:26;5.35;;;1.55;;
46288;SDS011;63105;46.158;14.604;2023-07-13T02:55:51;4.47;;;1.70;;
46288;SDS011;63105;46.158;14.604;2023-07-13T02:58:17;4.60;;;1.45;;
46288;SDS011;63105;46.158;14.604;2023-07-13T03:00:43;6.05;;;2.05;;
46288;SDS011;63105;46.158;14.604;2023-07-13T03:03:08;4.47;;;1.83;;
46288;SDS011;63105;46.158;14.604;2023-07-13T03:05:33;4.32;;;1.48;;
46288;SDS011;63105;46.158;14.604;2023-07-13T03:07:59;4.57;;;1.47;;
46288;SDS011;63105;46.158;14.604;2023-07-13T03:10:24;4.93;;;1.60;;
46288;SDS011;63105;46.158;14.604;2023-07-13T03:12:50;4.57;;;1.45;;
46288;SDS011;63105;46.158;14.604;2023-07-13T03:15:15;5.20;;;1.50;;
46288;SDS011;63105;46.158;14.604;2023-07-13T03:17:40;3.83;;;1.23;;
46288;SDS011;63105;46.158;14.604;2023-07-13T03:20:06;4.60;;;1.30;;
46288;SDS011;63105;46.158;14.604;2023-07-13T03:22:32;3.55;;;1.48;;
46288;SDS011;63105;46.158;14.604;2023-07-13T03:24:57;4.27;;;1.87;;
46288;SDS011;63105;46.158;14.604;2023-07-13T03:27:22;3.93;;;1.30;;
46288;SDS011;63105;46.158;14.604;2023-07-13T03:29:47;4.90;;;1.40;;
46288;SDS011;63105;46.158;14.604;2023-07-13T03:32:12;4.20;;;1.43;;
46288;SDS011;63105;46.158;14.604;2023-07-13T03:34:38;4.17;;;1.40;;
46288;SDS011;63105;46.158;14.604;2023-07-13T03:37:03;3.72;;;1.50;;
46288;SDS011;63105;46.158;14.604;2023-07-13T03:39:28;3.72;;;1.35;;
46288;SDS011;63105;46.158;14.604;2023-07-13T03:41:53;3.60;;;1.50;;
46288;SDS011;63105;46.158;14.604;2023-07-13T03:44:19;3.30;;;1.40;;
46288;SDS011;63105;46.158;14.604;2023-07-13T03:46:44;4.30;;;1.50;;
46288;SDS011;63105;46.158;14.604;2023-07-13T03:49:10;3.67;;;1.30;;
46288;SDS011;63105;46.158;14.604;2023-07-13T03:51:35;3.85;;;1.30;;
46288;SDS011;63105;46.158;14.604;2023-07-13T03:54:00;4.28;;;1.40;;
46288;SDS011;63105;46.158;14.604;2023-07-13T03:56:27;4.60;;;1.67;;
46288;SDS011;63105;46.158;14.604;2023-07-13T03:58:52;4.43;;;1.40;;
46288;SDS011;63105;46.158;14.604;2023-07-13T04:01:18;4.10;;;1.40;;
46288;SDS011;63105;46.158;14.604;2023-07-13T04:03:44;5.38;;;1.67;;
46288;SDS011;63105;46.158;14.604;2023-07-13T04:06:18;5.07;;;1.50;;
46288;SDS011;63105;46.158;14.604;2023-07-13T04:08:48;3.60;;;1.40;;
46288;SDS011;63105;46.158;14.604;2023-07-13T04:11:14;3.75;;;1.52;;
46288;SDS011;63105;46.158;14.604;2023-07-13T04:13:39;3.85;;;1.50;;
46288;SDS011;63105;46.158;14.604;2023-07-13T04:16:04;4.97;;;1.40;;
46288;SDS011;63105;46.158;14.604;2023-07-13T04:18:30;3.83;;;1.48;;
46288;SDS011;63105;46.158;14.604;2023-07-13T04:20:55;3.53;;;1.30;;
46288;SDS011;63105;46.158;14.604;2023-07-13T04:23:20;4.00;;;1.50;;
46288;SDS011;63105;46.158;14.604;2023-07-13T04:25:46;4.00;;;1.53;;
46288;SDS011;63105;46.158;14.604;2023-07-13T04:28:11;3.08;;;1.33;;
46288;SDS011;63105;46.158;14.604;2023-07-13T04:30:37;4.43;;;1.30;;
46288;SDS011;63105;46.158;14.604;2023-07-13T04:33:02;3.67;;;1.50;;
46288;SDS011;63105;46.158;14.604;2023-07-13T04:35:27;6.27;;;1.50;;
46288;SDS011;63105;46.158;14.604;2023-07-13T04:37:52;3.45;;;1.48;;
46288;SDS011;63105;46.158;14.604;2023-07-13T04:40:18;5.50;;;1.33;;
46288;SDS011;63105;46.158;14.604;2023-07-13T04:42:44;4.78;;;1.40;;
46288;SDS011;63105;46.158;14.604;2023-07-13T04:45:09;3.05;;;1.15;;
46288;SDS011;63105;46.158;14.604;2023-07-13T04:47:34;4.05;;;1.50;;
46288;SDS011;63105;46.158;14.604;2023-07-13T04:50:00;3.53;;;1.40;;
46288;SDS011;63105;46.158;14.604;2023-07-13T04:52:25;3.33;;;1.40;;
46288;SDS011;63105;46.158;14.604;2023-07-13T04:54:51;5.17;;;1.77;;
46288;SDS011;63105;46.158;14.604;2023-07-13T04:57:16;4.20;;;1.70;;
46288;SDS011;63105;46.158;14.604;2023-07-13T04:59:41;4.67;;;1.90;;
46288;SDS011;63105;46.158;14.604;2023-07-13T05:02:06;4.07;;;2.00;;
46288;SDS011;63105;46.158;14.604;2023-07-13T05:04:32;6.05;;;2.85;;
46288;SDS011;63105;46.158;14.604;2023-07-13T05:06:57;5.47;;;2.00;;
46288;SDS011;63105;46.158;14.604;2023-07-13T05:09:22;5.72;;;2.25;;
46288;SDS011;63105;46.158;14.604;2023-07-13T05:11:47;5.53;;;2.50;;
46288;SDS011;63105;46.158;14.604;2023-07-13T05:14:12;4.77;;;2.30;;
46288;SDS011;63105;46.158;14.604;2023-07-13T05:16:38;4.53;;;1.77;;
46288;SDS011;63105;46.158;14.604;2023-07-13T05:19:03;4.67;;;1.60;;
46288;SDS011;63105;46.158;14.604;2023-07-13T05:21:28;4.77;;;1.80;;
46288;SDS011;63105;46.158;14.604;2023-07-13T05:23:53;5.18;;;1.80;;
46288;SDS011;63105;46.158;14.604;2023-07-13T05:26:19;4.45;;;1.65;;
46288;SDS011;63105;46.158;14.604;2023-07-13T05:28:45;4.38;;;1.52;;
46288;SDS011;63105;46.158;14.604;2023-07-13T05:31:10;4.10;;;1.50;;
46288;SDS011;63105;46.158;14.604;2023-07-13T05:33:36;4.63;;;1.70;;
46288;SDS011;63105;46.158;14.604;2023-07-13T05:36:01;4.40;;;1.70;;
46288;SDS011;63105;46.158;14.604;2023-07-13T05:38:27;5.90;;;1.90;;
46288;SDS011;63105;46.158;14.604;2023-07-13T05:40:53;4.05;;;1.55;;
46288;SDS011;63105;46.158;14.604;2023-07-13T05:43:18;3.67;;;1.45;;
46288;SDS011;63105;46.158;14.604;2023-07-13T05:45:44;3.75;;;1.50;;
46288;SDS011;63105;46.158;14.604;2023-07-13T05:48:09;3.90;;;1.50;;
46288;SDS011;63105;46.158;14.604;2023-07-13T05:50:34;4.25;;;1.60;;
46288;SDS011;63105;46.158;14.604;2023-07-13T05:52:59;4.03;;;1.50;;
46288;SDS011;63105;46.158;14.604;2023-07-13T05:55:25;4.60;;;1.92;;
46288;SDS011;63105;46.158;14.604;2023-07-13T05:57:50;3.87;;;1.37;;
46288;SDS011;63105;46.158;14.604;2023-07-13T06:00:16;4.03;;;1.60;;
46288;SDS011;63105;46.158;14.604;2023-07-13T06:02:41;4.57;;;1.67;;
46288;SDS011;63105;46.158;14.604;2023-07-13T06:05:06;4.38;;;1.55;;
46288;SDS011;63105;46.158;14.604;2023-07-13T06:07:32;4.43;;;1.98;;
46288;SDS011;63105;46.158;14.604;2023-07-13T06:09:57;4.35;;;2.03;;
46288;SDS011;63105;46.158;14.604;2023-07-13T06:12:24;5.45;;;1.85;;
46288;SDS011;63105;46.158;14.604;2023-07-13T06:14:49;4.95;;;1.55;;
46288;SDS011;63105;46.158;14.604;2023-07-13T06:17:14;5.03;;;1.70;;
46288;SDS011;63105;46.158;14.604;2023-07-13T06:19:39;5.53;;;1.80;;
46288;SDS011;63105;46.158;14.604;2023-07-13T06:22:05;4.30;;;1.80;;
46288;SDS011;63105;46.158;14.604;2023-07-13T06:24:30;4.65;;;1.75;;
46288;SDS011;63105;46.158;14.604;2023-07-13T06:26:55;4.30;;;1.93;;
46288;SDS011;63105;46.158;14.604;2023-07-13T06:29:20;4.03;;;1.67;;
46288;SDS011;63105;46.158;14.604;2023-07-13T06:31:45;4.53;;;1.77;;
46288;SDS011;63105;46.158;14.604;2023-07-13T06:34:11;5.50;;;2.03;;
46288;SDS011;63105;46.158;14.604;2023-07-13T06:36:36;3.65;;;1.70;;
46288;SDS011;63105;46.158;14.604;2023-07-13T06:39:03;4.82;;;1.70;;
46288;SDS011;63105;46.158;14.604;2023-07-13T06:41:28;3.57;;;1.53;;
46288;SDS011;63105;46.158;14.604;2023-07-13T06:43:55;4.22;;;1.98;;
46288;SDS011;63105;46.158;14.604;2023-07-13T06:46:21;2.97;;;1.53;;
46288;SDS011;63105;46.158;14.604;2023-07-13T06:48:46;4.20;;;2.05;;
46288;SDS011;63105;46.158;14.604;2023-07-13T06:51:12;7.73;;;2.57;;
46288;SDS011;63105;46.158;14.604;2023-07-13T06:53:37;4.63;;;2.00;;
46288;SDS011;63105;46.158;14.604;2023-07-13T06:56:02;5.43;;;2.10;;
46288;SDS011;63105;46.158;14.604;2023-07-13T06:58:27;5.07;;;1.75;;
46288;SDS011;63105;46.158;14.604;2023-07-13T07:00:53;4.53;;;2.08;;
46288;SDS011;63105;46.158;14.604;2023-07-13T07:03:18;4.53;;;2.30;;
46288;SDS011;63105;46.158;14.604;2023-07-13T07:05:43;4.20;;;1.90;;
46288;SDS011;63105;46.158;14.604;2023-07-13T07:08:09;6.30;;;2.70;;
46288;SDS011;63105;46.158;14.604;2023-07-13T07:10:34;4.43;;;1.83;;
46288;SDS011;63105;46.158;14.604;2023-07-13T07:13:00;3.05;;;1.35;;
46288;SDS011;63105;46.158;14.604;2023-07-13T07:15:25;3.60;;;1.70;;
46288;SDS011;63105;46.158;14.604;2023-07-13T07:17:51;6.82;;;2.75;;
46288;SDS011;63105;46.158;14.604;2023-07-13T07:20:16;4.87;;;2.10;;
46288;SDS011;63105;46.158;14.604;2023-07-13T07:22:41;4.90;;;2.20;;
46288;SDS011;63105;46.158;14.604;2023-07-13T07:25:06;4.55;;;1.88;;
46288;SDS011;63105;46.158;14.604;2023-07-13T07:27:32;4.80;;;1.88;;
46288;SDS011;63105;46.158;14.604;2023-07-13T07:29:57;3.97;;;1.55;;
46288;SDS011;63105;46.158;14.604;2023-07-13T07:32:23;5.45;;;2.30;;
46288;SDS011;63105;46.158;14.604;2023-07-13T07:34:48;6.00;;;2.10;;
46288;SDS011;63105;46.158;14.604;2023-07-13T07:37:13;4.93;;;1.63;;
46288;SDS011;63105;46.158;14.604;2023-07-13T07:39:39;4.70;;;2.20;;
46288;SDS011;63105;46.158;14.604;2023-07-13T07:42:04;4.40;;;2.00;;
46288;SDS011;63105;46.158;14.604;2023-07-13T07:44:33;4.32;;;2.25;;
46288;SDS011;63105;46.158;14.604;2023-07-13T07:46:59;7.00;;;2.40;;
46288;SDS011;63105;46.158;14.604;2023-07-13T07:49:24;4.57;;;2.00;;
46288;SDS011;63105;46.158;14.604;2023-07-13T07:51:49;4.35;;;1.80;;
46288;SDS011;63105;46.158;14.604;2023-07-13T07:54:15;5.97;;;1.83;;
46288;SDS011;63105;46.158;14.604;2023-07-13T07:56:40;5.18;;;1.77;;
46288;SDS011;63105;46.158;14.604;2023-07-13T07:59:05;5.83;;;2.40;;
46288;SDS011;63105;46.158;14.604;2023-07-13T08:01:30;4.73;;;1.83;;
46288;SDS011;63105;46.158;14.604;2023-07-13T08:03:56;6.80;;;2.35;;
46288;SDS011;63105;46.158;14.604;2023-07-13T08:06:21;4.55;;;2.20;;
46288;SDS011;63105;46.158;14.604;2023-07-13T08:08:46;5.10;;;2.50;;
46288;SDS011;63105;46.158;14.604;2023-07-13T08:11:12;5.70;;;1.90;;
46288;SDS011;63105;46.158;14.604;2023-07-13T08:13:37;3.92;;;1.90;;
46288;SDS011;63105;46.158;14.604;2023-07-13T08:16:04;4.57;;;1.90;;
46288;SDS011;63105;46.158;14.604;2023-07-13T08:18:29;6.45;;;1.83;;
46288;SDS011;63105;46.158;14.604;2023-07-13T08:20:54;4.97;;;2.00;;
46288;SDS011;63105;46.158;14.604;2023-07-13T08:23:23;4.43;;;1.98;;
46288;SDS011;63105;46.158;14.604;2023-07-13T08:25:52;4.10;;;1.55;;
46288;SDS011;63105;46.158;14.604;2023-07-13T08:28:18;4.93;;;2.13;;
46288;SDS011;63105;46.158;14.604;2023-07-13T08:30:43;5.22;;;1.77;;
46288;SDS011;63105;46.158;14.604;2023-07-13T08:33:08;4.83;;;1.50;;
46288;SDS011;63105;46.158;14.604;2023-07-13T08:35:34;4.85;;;1.58;;
46288;SDS011;63105;46.158;14.604;2023-07-13T08:37:59;5.43;;;2.00;;
46288;SDS011;63105;46.158;14.604;2023-07-13T08:40:25;4.90;;;1.77;;
46288;SDS011;63105;46.158;14.604;2023-07-13T08:42:53;4.25;;;1.52;;
46288;SDS011;63105;46.158;14.604;2023-07-13T08:45:24;3.60;;;1.60;;
46288;SDS011;63105;46.158;14.604;2023-07-13T08:47:55;3.63;;;1.48;;
46288;SDS011;63105;46.158;14.604;2023-07-13T08:50:23;3.38;;;1.33;;
46288;SDS011;63105;46.158;14.604;2023-07-13T08:52:49;3.95;;;1.70;;
46288;SDS011;63105;46.158;14.604;2023-07-13T08:55:21;2.70;;;1.23;;
46288;SDS011;63105;46.158;14.604;2023-07-13T08:57:48;4.10;;;1.60;;
46288;SDS011;63105;46.158;14.604;2023-07-13T09:00:15;4.13;;;1.50;;
46288;SDS011;63105;46.158;14.604;2023-07-13T09:05:21;3.73;;;1.60;;
46288;SDS011;63105;46.158;14.604;2023-07-13T09:10:31;3.53;;;1.65;;
46288;SDS011;63105;46.158;14.604;2023-07-13T09:13:15;4.70;;;1.65;;
46288;SDS011;63105;46.158;14.604;2023-07-13T09:15:43;5.20;;;1.80;;
46288;SDS011;63105;46.158;14.604;2023-07-13T09:20:41;3.80;;;1.60;;
46288;SDS011;63105;46.158;14.604;2023-07-13T09:23:10;3.92;;;1.35;;
46288;SDS011;63105;46.158;14.604;2023-07-13T09:25:36;2.88;;;1.45;;
46288;SDS011;63105;46.158;14.604;2023-07-13T09:28:08;4.15;;;1.70;;
46288;SDS011;63105;46.158;14.604;2023-07-13T09:33:23;4.10;;;1.52;;
46288;SDS011;63105;46.158;14.604;2023-07-13T09:35:48;5.32;;;2.05;;
46288;SDS011;63105;46.158;14.604;2023-07-13T09:38:15;4.60;;;1.90;;
46288;SDS011;63105;46.158;14.604;2023-07-13T09:43:07;3.40;;;1.50;;
46288;SDS011;63105;46.158;14.604;2023-07-13T09:45:35;3.40;;;1.60;;
46288;SDS011;63105;46.158;14.604;2023-07-13T09:48:05;3.80;;;1.80;;
46288;SDS011;63105;46.158;14.604;2023-07-13T09:50:31;3.65;;;1.63;;
46288;SDS011;63105;46.158;14.604;2023-07-13T09:52:56;4.20;;;1.50;;
46288;SDS011;63105;46.158;14.604;2023-07-13T09:55:31;4.63;;;1.40;;
46288;SDS011;63105;46.158;14.604;2023-07-13T09:57:57;3.83;;;1.52;;
46288;SDS011;63105;46.158;14.604;2023-07-13T10:00:26;6.73;;;1.90;;
46288;SDS011;63105;46.158;14.604;2023-07-13T10:02:59;3.67;;;1.70;;
46288;SDS011;63105;46.158;14.604;2023-07-13T10:05:24;4.38;;;1.85;;
46288;SDS011;63105;46.158;14.604;2023-07-13T10:07:50;5.60;;;2.10;;
46288;SDS011;63105;46.158;14.604;2023-07-13T10:10:20;5.73;;;2.40;;
46288;SDS011;63105;46.158;14.604;2023-07-13T10:12:46;3.97;;;1.90;;
46288;SDS011;63105;46.158;14.604;2023-07-13T10:15:19;3.27;;;1.40;;
46288;SDS011;63105;46.158;14.604;2023-07-13T10:17:45;3.83;;;1.48;;
46288;SDS011;63105;46.158;14.604;2023-07-13T10:20:10;3.45;;;1.50;;
46288;SDS011;63105;46.158;14.604;2023-07-13T10:25:07;4.55;;;1.90;;
46288;SDS011;63105;46.158;14.604;2023-07-13T10:27:38;2.70;;;1.40;;
46288;SDS011;63105;46.158;14.604;2023-07-13T10:35:04;2.28;;;1.13;;
46288;SDS011;63105;46.158;14.604;2023-07-13T10:37:33;3.30;;;1.40;;
46288;SDS011;63105;46.158;14.604;2023-07-13T10:39:59;3.13;;;1.38;;
46288;SDS011;63105;46.158;14.604;2023-07-13T10:42:44;3.75;;;1.20;;
46288;SDS011;63105;46.158;14.604;2023-07-13T10:45:18;3.10;;;1.30;;
46288;SDS011;63105;46.158;14.604;2023-07-13T10:47:44;2.80;;;1.30;;
46288;SDS011;63105;46.158;14.604;2023-07-13T10:50:28;3.40;;;1.40;;
46288;SDS011;63105;46.158;14.604;2023-07-13T10:52:56;2.13;;;1.13;;
46288;SDS011;63105;46.158;14.604;2023-07-13T10:58:19;2.55;;;1.20;;
46288;SDS011;63105;46.158;14.604;2023-07-13T11:00:47;3.70;;;1.70;;
46288;SDS011;63105;46.158;14.604;2023-07-13T11:03:14;3.60;;;1.60;;
46288;SDS011;63105;46.158;14.604;2023-07-13T11:05:40;3.45;;;1.67;;
46288;SDS011;63105;46.158;14.604;2023-07-13T11:10:47;4.80;;;1.85;;
46288;SDS011;63105;46.158;14.604;2023-07-13T11:15:57;4.07;;;2.03;;
46288;SDS011;63105;46.158;14.604;2023-07-13T11:18:23;4.07;;;1.97;;
46288;SDS011;63105;46.158;14.604;2023-07-13T11:20:50;5.22;;;2.03;;
46288;SDS011;63105;46.158;14.604;2023-07-13T11:25:41;5.55;;;2.38;;
46288;SDS011;63105;46.158;14.604;2023-07-13T11:30:36;5.78;;;2.30;;
46288;SDS011;63105;46.158;14.604;2023-07-13T11:33:10;4.07;;;2.03;;
46288;SDS011;63105;46.158;14.604;2023-07-13T11:35:40;5.85;;;2.60;;
46288;SDS011;63105;46.158;14.604;2023-07-13T11:38:16;5.68;;;3.00;;
46288;SDS011;63105;46.158;14.604;2023-07-13T11:40:43;4.05;;;2.38;;
46288;SDS011;63105;46.158;14.604;2023-07-13T11:43:11;5.97;;;3.00;;
46288;SDS011;63105;46.158;14.604;2023-07-13T11:45:37;6.65;;;3.15;;
46288;SDS011;63105;46.158;14.604;2023-07-13T11:48:02;5.53;;;2.83;;
46288;SDS011;63105;46.158;14.604;2023-07-13T11:50:28;6.45;;;2.92;;
46288;SDS011;63105;46.158;14.604;2023-07-13T11:52:53;6.28;;;2.70;;
46288;SDS011;63105;46.158;14.604;2023-07-13T11:55:21;5.00;;;2.60;;
46288;SDS011;63105;46.158;14.604;2023-07-13T11:58:08;5.00;;;2.92;;
46288;SDS011;63105;46.158;14.604;2023-07-13T12:00:32;5.07;;;2.95;;
46288;SDS011;63105;46.158;14.604;2023-07-13T12:02:59;5.20;;;2.80;;
46288;SDS011;63105;46.158;14.604;2023-07-13T12:05:26;7.25;;;3.22;;
46288;SDS011;63105;46.158;14.604;2023-07-13T12:07:51;4.68;;;2.70;;
46288;SDS011;63105;46.158;14.604;2023-07-13T12:10:18;5.15;;;2.90;;
46288;SDS011;63105;46.158;14.604;2023-07-13T12:12:47;6.30;;;2.85;;
46288;SDS011;63105;46.158;14.604;2023-07-13T12:15:13;8.52;;;3.90;;
46288;SDS011;63105;46.158;14.604;2023-07-13T12:17:38;8.07;;;4.13;;
46288;SDS011;63105;46.158;14.604;2023-07-13T12:20:10;9.23;;;5.17;;
46288;SDS011;63105;46.158;14.604;2023-07-13T12:25:03;9.25;;;5.80;;
46288;SDS011;63105;46.158;14.604;2023-07-13T12:27:29;8.93;;;5.07;;
46288;SDS011;63105;46.158;14.604;2023-07-13T12:29:59;12.07;;;5.38;;
46288;SDS011;63105;46.158;14.604;2023-07-13T12:32:25;8.82;;;4.53;;
46288;SDS011;63105;46.158;14.604;2023-07-13T12:35:01;9.43;;;4.45;;
46288;SDS011;63105;46.158;14.604;2023-07-13T12:37:29;7.28;;;3.88;;
46288;SDS011;63105;46.158;14.604;2023-07-13T12:39:59;7.35;;;4.47;;
46288;SDS011;63105;46.158;14.604;2023-07-13T12:42:25;8.03;;;4.03;;
46288;SDS011;63105;46.158;14.604;2023-07-13T12:44:53;6.47;;;3.35;;
46288;SDS011;63105;46.158;14.604;2023-07-13T12:47:19;5.30;;;3.45;;
46288;SDS011;63105;46.158;14.604;2023-07-13T12:49:49;6.00;;;3.28;;
46288;SDS011;63105;46.158;14.604;2023-07-13T12:52:16;7.70;;;3.28;;
46288;SDS011;63105;46.158;14.604;2023-07-13T12:54:52;4.97;;;3.38;;
46288;SDS011;63105;46.158;14.604;2023-07-13T12:57:17;5.45;;;3.85;;
46288;SDS011;63105;46.158;14.604;2023-07-13T12:59:42;6.97;;;3.73;;
46288;SDS011;63105;46.158;14.604;2023-07-13T13:02:29;5.82;;;3.72;;
46288;SDS011;63105;46.158;14.604;2023-07-13T13:04:53;6.13;;;3.40;;
46288;SDS011;63105;46.158;14.604;2023-07-13T13:07:20;5.68;;;3.70;;
46288;SDS011;63105;46.158;14.604;2023-07-13T13:09:46;5.95;;;3.40;;
46288;SDS011;63105;46.158;14.604;2023-07-13T13:12:12;5.50;;;3.30;;
46288;SDS011;63105;46.158;14.604;2023-07-13T13:14:37;5.55;;;3.67;;
46288;SDS011;63105;46.158;14.604;2023-07-13T13:17:04;5.70;;;3.50;;
46288;SDS011;63105;46.158;14.604;2023-07-13T13:19:36;5.18;;;3.63;;
46288;SDS011;63105;46.158;14.604;2023-07-13T13:22:01;4.93;;;3.00;;
46288;SDS011;63105;46.158;14.604;2023-07-13T13:24:27;7.80;;;3.40;;
46288;SDS011;63105;46.158;14.604;2023-07-13T13:26:53;5.97;;;3.30;;
46288;SDS011;63105;46.158;14.604;2023-07-13T13:29:20;6.00;;;3.42;;
46288;SDS011;63105;46.158;14.604;2023-07-13T13:31:49;5.18;;;3.40;;
46288;SDS011;63105;46.158;14.604;2023-07-13T13:34:15;6.15;;;3.08;;
46288;SDS011;63105;46.158;14.604;2023-07-13T13:36:41;5.70;;;3.28;;
46288;SDS011;63105;46.158;14.604;2023-07-13T13:39:18;6.63;;;3.25;;
46288;SDS011;63105;46.158;14.604;2023-07-13T13:41:44;4.28;;;2.75;;
46288;SDS011;63105;46.158;14.604;2023-07-13T13:44:09;4.50;;;3.00;;
46288;SDS011;63105;46.158;14.604;2023-07-13T13:46:35;6.18;;;3.35;;
46288;SDS011;63105;46.158;14.604;2023-07-13T13:49:00;4.95;;;3.00;;
46288;SDS011;63105;46.158;14.604;2023-07-13T13:51:26;5.43;;;2.90;;
46288;SDS011;63105;46.158;14.604;2023-07-13T13:53:51;4.53;;;2.87;;
46288;SDS011;63105;46.158;14.604;2023-07-13T13:56:18;5.38;;;2.83;;
46288;SDS011;63105;46.158;14.604;2023-07-13T13:58:44;4.18;;;2.38;;
46288;SDS011;63105;46.158;14.604;2023-07-13T14:01:13;4.60;;;2.80;;
46288;SDS011;63105;46.158;14.604;2023-07-13T14:03:39;5.10;;;3.10;;
46288;SDS011;63105;46.158;14.604;2023-07-13T14:06:04;4.15;;;2.70;;
46288;SDS011;63105;46.158;14.604;2023-07-13T14:08:30;5.15;;;3.00;;
46288;SDS011;63105;46.158;14.604;2023-07-13T14:10:56;6.05;;;3.20;;
46288;SDS011;63105;46.158;14.604;2023-07-13T14:13:26;4.03;;;2.90;;
46288;SDS011;63105;46.158;14.604;2023-07-13T14:15:52;5.32;;;2.90;;
46288;SDS011;63105;46.158;14.604;2023-07-13T14:18:18;5.93;;;2.88;;
46288;SDS011;63105;46.158;14.604;2023-07-13T14:20:46;4.50;;;2.83;;
46288;SDS011;63105;46.158;14.604;2023-07-13T14:23:13;4.93;;;2.83;;
46288;SDS011;63105;46.158;14.604;2023-07-13T14:25:38;4.88;;;2.55;;
46288;SDS011;63105;46.158;14.604;2023-07-13T14:28:04;4.82;;;2.47;;
46288;SDS011;63105;46.158;14.604;2023-07-13T14:30:35;3.70;;;2.40;;
46288;SDS011;63105;46.158;14.604;2023-07-13T14:33:01;5.72;;;2.88;;
46288;SDS011;63105;46.158;14.604;2023-07-13T14:35:26;4.75;;;2.42;;
46288;SDS011;63105;46.158;14.604;2023-07-13T14:37:52;4.72;;;2.40;;
46288;SDS011;63105;46.158;14.604;2023-07-13T14:40:19;4.50;;;2.60;;
46288;SDS011;63105;46.158;14.604;2023-07-13T14:42:46;4.50;;;2.50;;
46288;SDS011;63105;46.158;14.604;2023-07-13T14:45:15;3.92;;;2.22;;
46288;SDS011;63105;46.158;14.604;2023-07-13T14:47:41;4.60;;;2.20;;
46288;SDS011;63105;46.158;14.604;2023-07-13T14:50:17;4.25;;;2.38;;
46288;SDS011;63105;46.158;14.604;2023-07-13T14:52:43;3.60;;;1.98;;
46288;SDS011;63105;46.158;14.604;2023-07-13T14:55:15;4.25;;;2.05;;
46288;SDS011;63105;46.158;14.604;2023-07-13T14:57:41;3.67;;;1.80;;
46288;SDS011;63105;46.158;14.604;2023-07-13T15:00:13;4.83;;;2.20;;
46288;SDS011;63105;46.158;14.604;2023-07-13T15:02:38;3.72;;;2.30;;
46288;SDS011;63105;46.158;14.604;2023-07-13T15:05:14;4.03;;;2.20;;
46288;SDS011;63105;46.158;14.604;2023-07-13T15:07:41;3.80;;;2.00;;